sensor_id;sensor_type;location;lat;lon;timestamp;temperature;humidity
59651;DHT22;45954;49.768;8.636;2022-08-03T00:00:12;23.00;63.60
59651;DHT22;45954;49.768;8.636;2022-08-03T00:02:40;23.00;64.20
59651;DHT22;45954;49.768;8.636;2022-08-03T00:05:06;22.80;64.00
59651;DHT22;45954;49.768;8.636;2022-08-03T00:07:33;22.80;64.20
59651;DHT22;45954;49.768;8.636;2022-08-03T00:09:59;22.90;64.60
59651;DHT22;45954;49.768;8.636;2022-08-03T00:12:25;23.00;64.60
59651;DHT22;45954;49.768;8.636;2022-08-03T00:14:51;23.40;64.00
59651;DHT22;45954;49.768;8.636;2022-08-03T00:17:17;23.30;63.50
59651;DHT22;45954;49.768;8.636;2022-08-03T00:19:43;23.10;64.40
59651;DHT22;45954;49.768;8.636;2022-08-03T00:22:09;23.00;64.30
59651;DHT22;45954;49.768;8.636;2022-08-03T00:24:34;23.10;64.40
59651;DHT22;45954;49.768;8.636;2022-08-03T00:27:01;23.00;65.20
59651;DHT22;45954;49.768;8.636;2022-08-03T00:29:27;23.00;65.10
59651;DHT22;45954;49.768;8.636;2022-08-03T00:31:52;23.00;65.40
59651;DHT22;45954;49.768;8.636;2022-08-03T00:34:18;23.10;65.20
59651;DHT22;45954;49.768;8.636;2022-08-03T00:36:44;23.00;65.00
59651;DHT22;45954;49.768;8.636;2022-08-03T00:39:10;23.10;65.40
59651;DHT22;45954;49.768;8.636;2022-08-03T00:41:36;23.00;65.50
59651;DHT22;45954;49.768;8.636;2022-08-03T00:44:02;23.00;65.50
59651;DHT22;45954;49.768;8.636;2022-08-03T00:46:28;23.10;65.50
59651;DHT22;45954;49.768;8.636;2022-08-03T00:48:54;23.00;66.00
59651;DHT22;45954;49.768;8.636;2022-08-03T00:51:21;22.90;65.90
59651;DHT22;45954;49.768;8.636;2022-08-03T00:53:48;22.90;66.00
59651;DHT22;45954;49.768;8.636;2022-08-03T00:56:15;22.90;66.30
59651;DHT22;45954;49.768;8.636;2022-08-03T00:58:44;22.90;65.90
59651;DHT22;45954;49.768;8.636;2022-08-03T01:01:11;22.80;66.40
59651;DHT22;45954;49.768;8.636;2022-08-03T01:03:37;22.80;66.90
59651;DHT22;45954;49.768;8.636;2022-08-03T01:06:17;22.70;66.60
59651;DHT22;45954;49.768;8.636;2022-08-03T01:11:44;22.80;66.90
59651;DHT22;45954;49.768;8.636;2022-08-03T01:14:23;22.70;67.70
59651;DHT22;45954;49.768;8.636;2022-08-03T01:17:00;22.70;67.60
59651;DHT22;45954;49.768;8.636;2022-08-03T01:20:01;22.70;67.90
59651;DHT22;45954;49.768;8.636;2022-08-03T01:25:39;22.70;68.10
59651;DHT22;45954;49.768;8.636;2022-08-03T01:31:06;22.60;68.60
59651;DHT22;45954;49.768;8.636;2022-08-03T01:33:42;22.60;68.20
59651;DHT22;45954;49.768;8.636;2022-08-03T01:36:15;22.60;68.60
59651;DHT22;45954;49.768;8.636;2022-08-03T01:38:51;22.50;68.60
59651;DHT22;45954;49.768;8.636;2022-08-03T01:41:29;22.50;68.80
59651;DHT22;45954;49.768;8.636;2022-08-03T01:43:59;22.50;69.00
59651;DHT22;45954;49.768;8.636;2022-08-03T01:46:30;22.50;68.80
59651;DHT22;45954;49.768;8.636;2022-08-03T01:48:58;22.50;68.90
59651;DHT22;45954;49.768;8.636;2022-08-03T01:51:24;22.40;68.90
59651;DHT22;45954;49.768;8.636;2022-08-03T01:53:52;22.20;68.80
59651;DHT22;45954;49.768;8.636;2022-08-03T01:56:22;22.10;69.80
59651;DHT22;45954;49.768;8.636;2022-08-03T01:58:51;22.30;69.90
59651;DHT22;45954;49.768;8.636;2022-08-03T02:01:20;22.20;69.70
59651;DHT22;45954;49.768;8.636;2022-08-03T02:03:49;22.20;70.00
59651;DHT22;45954;49.768;8.636;2022-08-03T02:06:17;22.10;70.30
59651;DHT22;45954;49.768;8.636;2022-08-03T02:08:47;22.10;70.10
59651;DHT22;45954;49.768;8.636;2022-08-03T02:11:14;21.90;70.90
59651;DHT22;45954;49.768;8.636;2022-08-03T02:13:43;22.00;70.60
59651;DHT22;45954;49.768;8.636;2022-08-03T02:16:12;22.10;70.60
59651;DHT22;45954;49.768;8.636;2022-08-03T02:18:39;22.10;71.00
59651;DHT22;45954;49.768;8.636;2022-08-03T02:21:07;22.20;70.90
59651;DHT22;45954;49.768;8.636;2022-08-03T02:23:36;22.20;70.90
59651;DHT22;45954;49.768;8.636;2022-08-03T02:26:05;22.20;70.80
59651;DHT22;45954;49.768;8.636;2022-08-03T02:28:36;22.10;70.90
59651;DHT22;45954;49.768;8.636;2022-08-03T02:31:13;22.10;71.20
59651;DHT22;45954;49.768;8.636;2022-08-03T02:33:49;22.00;70.80
59651;DHT22;45954;49.768;8.636;2022-08-03T02:36:24;22.10;71.00
59651;DHT22;45954;49.768;8.636;2022-08-03T02:38:56;22.10;71.30
59651;DHT22;45954;49.768;8.636;2022-08-03T02:41:36;21.90;71.80
59651;DHT22;45954;49.768;8.636;2022-08-03T02:44:08;22.00;72.10
59651;DHT22;45954;49.768;8.636;2022-08-03T02:46:41;22.00;71.90
59651;DHT22;45954;49.768;8.636;2022-08-03T02:49:12;21.90;72.20
59651;DHT22;45954;49.768;8.636;2022-08-03T02:51:40;21.80;72.40
59651;DHT22;45954;49.768;8.636;2022-08-03T02:54:08;21.70;72.20
59651;DHT22;45954;49.768;8.636;2022-08-03T02:56:37;21.70;72.80
59651;DHT22;45954;49.768;8.636;2022-08-03T02:59:05;21.70;72.40
59651;DHT22;45954;49.768;8.636;2022-08-03T03:01:32;21.60;72.90
59651;DHT22;45954;49.768;8.636;2022-08-03T03:03:59;21.60;72.80
59651;DHT22;45954;49.768;8.636;2022-08-03T03:06:27;21.60;73.30
59651;DHT22;45954;49.768;8.636;2022-08-03T03:08:55;21.50;72.50
59651;DHT22;45954;49.768;8.636;2022-08-03T03:11:24;21.50;72.80
59651;DHT22;45954;49.768;8.636;2022-08-03T03:13:52;21.30;73.00
59651;DHT22;45954;49.768;8.636;2022-08-03T03:16:19;21.00;73.90
59651;DHT22;45954;49.768;8.636;2022-08-03T03:18:47;21.00;73.70
59651;DHT22;45954;49.768;8.636;2022-08-03T03:21:17;21.00;73.50
59651;DHT22;45954;49.768;8.636;2022-08-03T03:23:45;20.90;74.20
59651;DHT22;45954;49.768;8.636;2022-08-03T03:26:13;21.00;73.60
59651;DHT22;45954;49.768;8.636;2022-08-03T03:28:40;21.00;73.90
59651;DHT22;45954;49.768;8.636;2022-08-03T03:31:07;21.10;74.00
59651;DHT22;45954;49.768;8.636;2022-08-03T03:33:35;21.10;73.90
59651;DHT22;45954;49.768;8.636;2022-08-03T03:36:03;21.10;74.10
59651;DHT22;45954;49.768;8.636;2022-08-03T03:38:31;21.10;74.70
59651;DHT22;45954;49.768;8.636;2022-08-03T03:40:58;21.10;74.60
59651;DHT22;45954;49.768;8.636;2022-08-03T03:43:24;21.10;74.50
59651;DHT22;45954;49.768;8.636;2022-08-03T03:45:50;20.90;74.60
59651;DHT22;45954;49.768;8.636;2022-08-03T03:48:18;20.40;75.80
59651;DHT22;45954;49.768;8.636;2022-08-03T03:50:45;20.10;76.90
59651;DHT22;45954;49.768;8.636;2022-08-03T03:53:13;20.50;76.50
59651;DHT22;45954;49.768;8.636;2022-08-03T03:55:40;20.70;75.90
59651;DHT22;45954;49.768;8.636;2022-08-03T03:58:07;20.90;76.30
59651;DHT22;45954;49.768;8.636;2022-08-03T04:00:33;20.80;76.20
59651;DHT22;45954;49.768;8.636;2022-08-03T04:02:59;20.70;75.70
59651;DHT22;45954;49.768;8.636;2022-08-03T04:05:25;20.30;77.20
59651;DHT22;45954;49.768;8.636;2022-08-03T04:08:14;19.90;77.90
59651;DHT22;45954;49.768;8.636;2022-08-03T04:11:15;20.10;77.70
59651;DHT22;45954;49.768;8.636;2022-08-03T04:14:16;20.40;77.40
59651;DHT22;45954;49.768;8.636;2022-08-03T04:17:05;20.60;77.00
59651;DHT22;45954;49.768;8.636;2022-08-03T04:19:37;20.60;77.50
59651;DHT22;45954;49.768;8.636;2022-08-03T04:22:09;20.60;77.30
59651;DHT22;45954;49.768;8.636;2022-08-03T04:24:43;20.80;77.10
59651;DHT22;45954;49.768;8.636;2022-08-03T04:27:19;20.80;77.10
59651;DHT22;45954;49.768;8.636;2022-08-03T04:29:49;20.80;77.00
59651;DHT22;45954;49.768;8.636;2022-08-03T04:32:17;20.80;77.00
59651;DHT22;45954;49.768;8.636;2022-08-03T04:34:45;20.40;78.10
59651;DHT22;45954;49.768;8.636;2022-08-03T04:37:26;20.30;78.60
59651;DHT22;45954;49.768;8.636;2022-08-03T04:39:56;20.10;79.30
59651;DHT22;45954;49.768;8.636;2022-08-03T04:42:24;20.30;78.70
59651;DHT22;45954;49.768;8.636;2022-08-03T04:44:53;20.40;78.20
59651;DHT22;45954;49.768;8.636;2022-08-03T04:47:21;20.50;78.40
59651;DHT22;45954;49.768;8.636;2022-08-03T04:49:48;20.50;78.20
59651;DHT22;45954;49.768;8.636;2022-08-03T04:52:14;20.30;78.50
59651;DHT22;45954;49.768;8.636;2022-08-03T04:54:44;20.10;79.30
59651;DHT22;45954;49.768;8.636;2022-08-03T04:57:11;20.30;79.20
59651;DHT22;45954;49.768;8.636;2022-08-03T04:59:38;20.60;78.80
59651;DHT22;45954;49.768;8.636;2022-08-03T05:02:04;20.80;78.70
59651;DHT22;45954;49.768;8.636;2022-08-03T05:04:30;20.90;78.50
59651;DHT22;45954;49.768;8.636;2022-08-03T05:06:55;20.80;79.10
59651;DHT22;45954;49.768;8.636;2022-08-03T05:09:21;20.90;79.20
59651;DHT22;45954;49.768;8.636;2022-08-03T05:11:47;21.00;79.30
59651;DHT22;45954;49.768;8.636;2022-08-03T05:14:13;21.10;78.60
59651;DHT22;45954;49.768;8.636;2022-08-03T05:16:39;21.30;78.60
59651;DHT22;45954;49.768;8.636;2022-08-03T05:19:05;21.40;78.80
59651;DHT22;45954;49.768;8.636;2022-08-03T05:21:31;21.30;79.10
59651;DHT22;45954;49.768;8.636;2022-08-03T05:23:56;21.40;79.00
59651;DHT22;45954;49.768;8.636;2022-08-03T05:26:22;21.50;79.00
59651;DHT22;45954;49.768;8.636;2022-08-03T05:28:48;21.50;79.30
59651;DHT22;45954;49.768;8.636;2022-08-03T05:31:14;21.60;79.10
59651;DHT22;45954;49.768;8.636;2022-08-03T05:33:40;21.70;79.00
59651;DHT22;45954;49.768;8.636;2022-08-03T05:36:06;21.80;78.60
59651;DHT22;45954;49.768;8.636;2022-08-03T05:38:32;21.90;78.80
59651;DHT22;45954;49.768;8.636;2022-08-03T05:40:58;22.00;78.50
59651;DHT22;45954;49.768;8.636;2022-08-03T05:43:24;22.00;78.70
59651;DHT22;45954;49.768;8.636;2022-08-03T05:45:49;22.10;78.80
59651;DHT22;45954;49.768;8.636;2022-08-03T05:48:15;22.20;78.60
59651;DHT22;45954;49.768;8.636;2022-08-03T05:50:41;22.30;77.90
59651;DHT22;45954;49.768;8.636;2022-08-03T05:53:07;22.30;76.90
59651;DHT22;45954;49.768;8.636;2022-08-03T05:55:33;22.30;77.60
59651;DHT22;45954;49.768;8.636;2022-08-03T05:57:59;22.40;77.90
59651;DHT22;45954;49.768;8.636;2022-08-03T06:00:27;22.50;77.70
59651;DHT22;45954;49.768;8.636;2022-08-03T06:02:52;22.50;77.00
59651;DHT22;45954;49.768;8.636;2022-08-03T06:05:18;22.50;77.10
59651;DHT22;45954;49.768;8.636;2022-08-03T06:07:44;22.70;76.90
59651;DHT22;45954;49.768;8.636;2022-08-03T06:10:11;22.80;77.00
59651;DHT22;45954;49.768;8.636;2022-08-03T06:12:37;23.00;75.90
59651;DHT22;45954;49.768;8.636;2022-08-03T06:15:06;23.20;75.50
59651;DHT22;45954;49.768;8.636;2022-08-03T06:17:32;23.50;74.90
59651;DHT22;45954;49.768;8.636;2022-08-03T06:19:58;23.60;75.00
59651;DHT22;45954;49.768;8.636;2022-08-03T06:22:24;23.70;72.90
59651;DHT22;45954;49.768;8.636;2022-08-03T06:24:50;23.60;72.70
59651;DHT22;45954;49.768;8.636;2022-08-03T06:27:16;23.70;74.40
59651;DHT22;45954;49.768;8.636;2022-08-03T06:29:42;24.00;73.20
59651;DHT22;45954;49.768;8.636;2022-08-03T06:32:07;24.20;72.80
59651;DHT22;45954;49.768;8.636;2022-08-03T06:34:33;24.40;72.80
59651;DHT22;45954;49.768;8.636;2022-08-03T06:36:59;24.40;71.60
59651;DHT22;45954;49.768;8.636;2022-08-03T06:39:25;24.40;72.10
59651;DHT22;45954;49.768;8.636;2022-08-03T06:41:52;24.30;71.10
59651;DHT22;45954;49.768;8.636;2022-08-03T06:44:18;24.20;70.80
59651;DHT22;45954;49.768;8.636;2022-08-03T06:46:44;24.30;72.00
59651;DHT22;45954;49.768;8.636;2022-08-03T06:49:10;24.60;71.70
59651;DHT22;45954;49.768;8.636;2022-08-03T06:51:36;24.80;71.00
59651;DHT22;45954;49.768;8.636;2022-08-03T06:54:02;24.70;69.60
59651;DHT22;45954;49.768;8.636;2022-08-03T06:56:28;24.60;70.10
59651;DHT22;45954;49.768;8.636;2022-08-03T06:58:54;24.60;70.50
59651;DHT22;45954;49.768;8.636;2022-08-03T07:01:20;24.80;70.50
59651;DHT22;45954;49.768;8.636;2022-08-03T07:03:45;25.10;70.20
59651;DHT22;45954;49.768;8.636;2022-08-03T07:06:11;25.20;70.20
59651;DHT22;45954;49.768;8.636;2022-08-03T07:08:37;25.20;70.40
59651;DHT22;45954;49.768;8.636;2022-08-03T07:11:03;25.40;69.50
59651;DHT22;45954;49.768;8.636;2022-08-03T07:13:29;25.40;69.10
59651;DHT22;45954;49.768;8.636;2022-08-03T07:15:55;25.40;67.90
59651;DHT22;45954;49.768;8.636;2022-08-03T07:18:21;25.40;68.10
59651;DHT22;45954;49.768;8.636;2022-08-03T07:20:47;25.70;68.60
59651;DHT22;45954;49.768;8.636;2022-08-03T07:23:13;25.90;67.40
59651;DHT22;45954;49.768;8.636;2022-08-03T07:25:39;26.00;67.00
59651;DHT22;45954;49.768;8.636;2022-08-03T07:28:05;26.10;66.70
59651;DHT22;45954;49.768;8.636;2022-08-03T07:30:31;26.10;66.10
59651;DHT22;45954;49.768;8.636;2022-08-03T07:32:57;26.20;66.50
59651;DHT22;45954;49.768;8.636;2022-08-03T07:35:22;26.20;66.20
59651;DHT22;45954;49.768;8.636;2022-08-03T07:37:48;26.40;66.60
59651;DHT22;45954;49.768;8.636;2022-08-03T07:40:14;26.50;66.70
59651;DHT22;45954;49.768;8.636;2022-08-03T07:42:42;26.70;65.70
59651;DHT22;45954;49.768;8.636;2022-08-03T07:45:08;26.70;65.60
59651;DHT22;45954;49.768;8.636;2022-08-03T07:47:34;26.80;65.50
59651;DHT22;45954;49.768;8.636;2022-08-03T07:50:00;27.00;65.10
59651;DHT22;45954;49.768;8.636;2022-08-03T07:52:26;27.10;64.10
59651;DHT22;45954;49.768;8.636;2022-08-03T07:55:10;27.20;64.00
59651;DHT22;45954;49.768;8.636;2022-08-03T07:57:36;27.30;64.40
59651;DHT22;45954;49.768;8.636;2022-08-03T08:00:12;27.40;64.70
59651;DHT22;45954;49.768;8.636;2022-08-03T08:02:41;27.60;64.50
59651;DHT22;45954;49.768;8.636;2022-08-03T08:05:07;27.60;63.00
59651;DHT22;45954;49.768;8.636;2022-08-03T08:07:36;27.70;63.60
59651;DHT22;45954;49.768;8.636;2022-08-03T08:10:04;27.90;63.60
59651;DHT22;45954;49.768;8.636;2022-08-03T08:12:31;27.50;63.50
59651;DHT22;45954;49.768;8.636;2022-08-03T08:14:57;27.60;63.30
59651;DHT22;45954;49.768;8.636;2022-08-03T08:17:23;27.80;63.70
59651;DHT22;45954;49.768;8.636;2022-08-03T08:19:49;27.80;63.40
59651;DHT22;45954;49.768;8.636;2022-08-03T08:22:15;27.90;62.70
59651;DHT22;45954;49.768;8.636;2022-08-03T08:24:40;28.10;62.10
59651;DHT22;45954;49.768;8.636;2022-08-03T08:27:09;28.10;62.00
59651;DHT22;45954;49.768;8.636;2022-08-03T08:29:37;28.20;61.60
59651;DHT22;45954;49.768;8.636;2022-08-03T08:32:03;28.30;62.50
59651;DHT22;45954;49.768;8.636;2022-08-03T08:34:30;28.50;61.80
59651;DHT22;45954;49.768;8.636;2022-08-03T08:36:55;28.70;62.30
59651;DHT22;45954;49.768;8.636;2022-08-03T08:39:21;28.90;61.90
59651;DHT22;45954;49.768;8.636;2022-08-03T08:41:50;29.00;60.90
59651;DHT22;45954;49.768;8.636;2022-08-03T08:44:16;29.10;60.90
59651;DHT22;45954;49.768;8.636;2022-08-03T08:46:43;29.00;60.70
59651;DHT22;45954;49.768;8.636;2022-08-03T08:49:09;29.00;60.10
59651;DHT22;45954;49.768;8.636;2022-08-03T08:51:39;29.10;60.70
59651;DHT22;45954;49.768;8.636;2022-08-03T08:54:09;29.20;61.50
59651;DHT22;45954;49.768;8.636;2022-08-03T08:56:36;29.40;61.30
59651;DHT22;45954;49.768;8.636;2022-08-03T08:59:04;29.50;61.10
59651;DHT22;45954;49.768;8.636;2022-08-03T09:01:30;29.50;60.50
59651;DHT22;45954;49.768;8.636;2022-08-03T09:03:56;29.50;61.70
59651;DHT22;45954;49.768;8.636;2022-08-03T09:06:23;29.50;60.10
59651;DHT22;45954;49.768;8.636;2022-08-03T09:08:49;29.60;61.00
59651;DHT22;45954;49.768;8.636;2022-08-03T09:11:20;29.70;60.20
59651;DHT22;45954;49.768;8.636;2022-08-03T09:13:47;29.90;60.30
59651;DHT22;45954;49.768;8.636;2022-08-03T09:16:17;29.90;60.20
59651;DHT22;45954;49.768;8.636;2022-08-03T09:18:50;29.90;60.00
59651;DHT22;45954;49.768;8.636;2022-08-03T09:21:23;30.00;59.70
59651;DHT22;45954;49.768;8.636;2022-08-03T09:23:56;30.20;59.20
59651;DHT22;45954;49.768;8.636;2022-08-03T09:26:24;30.40;58.80
59651;DHT22;45954;49.768;8.636;2022-08-03T09:29:00;30.20;58.90
59651;DHT22;45954;49.768;8.636;2022-08-03T09:31:36;30.40;59.20
59651;DHT22;45954;49.768;8.636;2022-08-03T09:34:04;30.50;58.00
59651;DHT22;45954;49.768;8.636;2022-08-03T09:39:14;30.50;57.80
59651;DHT22;45954;49.768;8.636;2022-08-03T09:41:44;30.80;58.10
59651;DHT22;45954;49.768;8.636;2022-08-03T09:44:11;30.90;57.50
59651;DHT22;45954;49.768;8.636;2022-08-03T09:46:54;30.70;57.20
59651;DHT22;45954;49.768;8.636;2022-08-03T09:49:22;30.80;57.50
59651;DHT22;45954;49.768;8.636;2022-08-03T09:51:48;30.80;56.90
59651;DHT22;45954;49.768;8.636;2022-08-03T09:54:34;30.90;56.40
59651;DHT22;45954;49.768;8.636;2022-08-03T09:57:01;31.00;56.30
59651;DHT22;45954;49.768;8.636;2022-08-03T09:59:29;31.10;57.30
59651;DHT22;45954;49.768;8.636;2022-08-03T10:01:57;31.30;56.50
59651;DHT22;45954;49.768;8.636;2022-08-03T10:04:27;31.40;56.20
59651;DHT22;45954;49.768;8.636;2022-08-03T10:09:32;31.50;56.90
59651;DHT22;45954;49.768;8.636;2022-08-03T10:12:10;31.80;55.70
59651;DHT22;45954;49.768;8.636;2022-08-03T10:14:39;31.80;55.10
59651;DHT22;45954;49.768;8.636;2022-08-03T10:17:08;31.90;56.60
59651;DHT22;45954;49.768;8.636;2022-08-03T10:19:34;31.80;55.60
59651;DHT22;45954;49.768;8.636;2022-08-03T10:22:06;31.60;55.00
59651;DHT22;45954;49.768;8.636;2022-08-03T10:27:18;31.80;55.50
59651;DHT22;45954;49.768;8.636;2022-08-03T10:29:50;32.00;56.40
59651;DHT22;45954;49.768;8.636;2022-08-03T10:32:34;32.20;54.30
59651;DHT22;45954;49.768;8.636;2022-08-03T10:40:22;32.50;55.80
59651;DHT22;45954;49.768;8.636;2022-08-03T10:42:50;32.70;55.00
59651;DHT22;45954;49.768;8.636;2022-08-03T10:45:27;32.70;55.30
59651;DHT22;45954;49.768;8.636;2022-08-03T10:47:55;32.70;54.20
59651;DHT22;45954;49.768;8.636;2022-08-03T10:50:24;32.70;54.00
59651;DHT22;45954;49.768;8.636;2022-08-03T10:52:59;32.40;53.60
59651;DHT22;45954;49.768;8.636;2022-08-03T10:55:38;32.20;53.80
59651;DHT22;45954;49.768;8.636;2022-08-03T11:01:07;32.70;55.00
59651;DHT22;45954;49.768;8.636;2022-08-03T11:06:22;32.90;54.80
59651;DHT22;45954;49.768;8.636;2022-08-03T11:11:37;33.10;53.30
59651;DHT22;45954;49.768;8.636;2022-08-03T11:14:08;33.20;52.90
59651;DHT22;45954;49.768;8.636;2022-08-03T11:16:42;33.10;51.70
59651;DHT22;45954;49.768;8.636;2022-08-03T11:19:16;33.00;52.70
59651;DHT22;45954;49.768;8.636;2022-08-03T11:32:53;33.80;50.60
59651;DHT22;45954;49.768;8.636;2022-08-03T11:35:28;33.90;52.10
59651;DHT22;45954;49.768;8.636;2022-08-03T11:40:48;34.00;50.70
59651;DHT22;45954;49.768;8.636;2022-08-03T11:45:56;34.20;51.50
59651;DHT22;45954;49.768;8.636;2022-08-03T11:48:27;33.80;50.00
59651;DHT22;45954;49.768;8.636;2022-08-03T11:51:20;33.60;50.00
59651;DHT22;45954;49.768;8.636;2022-08-03T11:53:49;33.70;50.30
59651;DHT22;45954;49.768;8.636;2022-08-03T11:56:16;33.90;49.80
59651;DHT22;45954;49.768;8.636;2022-08-03T11:58:47;34.00;49.50
59651;DHT22;45954;49.768;8.636;2022-08-03T12:01:18;34.10;50.00
59651;DHT22;45954;49.768;8.636;2022-08-03T12:03:46;34.00;49.50
59651;DHT22;45954;49.768;8.636;2022-08-03T12:06:14;34.10;50.10
59651;DHT22;45954;49.768;8.636;2022-08-03T12:08:43;34.10;51.40
59651;DHT22;45954;49.768;8.636;2022-08-03T12:11:13;34.30;50.90
59651;DHT22;45954;49.768;8.636;2022-08-03T12:13:40;34.60;49.60
59651;DHT22;45954;49.768;8.636;2022-08-03T12:16:08;34.80;50.50
59651;DHT22;45954;49.768;8.636;2022-08-03T12:18:35;34.80;49.20
59651;DHT22;45954;49.768;8.636;2022-08-03T12:21:08;34.90;49.00
59651;DHT22;45954;49.768;8.636;2022-08-03T12:23:36;34.60;49.50
59651;DHT22;45954;49.768;8.636;2022-08-03T12:26:05;34.90;49.50
59651;DHT22;45954;49.768;8.636;2022-08-03T12:28:32;35.00;49.50
59651;DHT22;45954;49.768;8.636;2022-08-03T12:31:04;35.30;49.60
59651;DHT22;45954;49.768;8.636;2022-08-03T12:36:21;35.30;48.00
59651;DHT22;45954;49.768;8.636;2022-08-03T12:38:58;35.40;50.50
59651;DHT22;45954;49.768;8.636;2022-08-03T12:41:37;35.80;48.10
59651;DHT22;45954;49.768;8.636;2022-08-03T12:44:06;35.80;48.30
59651;DHT22;45954;49.768;8.636;2022-08-03T12:46:35;35.30;47.90
59651;DHT22;45954;49.768;8.636;2022-08-03T12:49:09;35.40;48.10
59651;DHT22;45954;49.768;8.636;2022-08-03T12:54:28;35.50;47.70
59651;DHT22;45954;49.768;8.636;2022-08-03T12:57:01;35.60;48.10
59651;DHT22;45954;49.768;8.636;2022-08-03T12:59:31;35.60;47.20
59651;DHT22;45954;49.768;8.636;2022-08-03T13:01:59;35.70;47.10
59651;DHT22;45954;49.768;8.636;2022-08-03T13:04:31;35.60;47.60
59651;DHT22;45954;49.768;8.636;2022-08-03T13:07:01;35.40;47.10
59651;DHT22;45954;49.768;8.636;2022-08-03T13:09:29;35.90;48.60
59651;DHT22;45954;49.768;8.636;2022-08-03T13:12:09;36.30;46.90
59651;DHT22;45954;49.768;8.636;2022-08-03T13:14:43;36.50;47.40
59651;DHT22;45954;49.768;8.636;2022-08-03T13:17:11;36.40;46.80
59651;DHT22;45954;49.768;8.636;2022-08-03T13:19:39;36.30;47.10
59651;DHT22;45954;49.768;8.636;2022-08-03T13:22:17;36.60;48.60
59651;DHT22;45954;49.768;8.636;2022-08-03T13:24:49;36.30;46.50
59651;DHT22;45954;49.768;8.636;2022-08-03T13:27:17;36.10;48.70
59651;DHT22;45954;49.768;8.636;2022-08-03T13:29:43;36.10;47.10
59651;DHT22;45954;49.768;8.636;2022-08-03T13:32:10;36.20;47.30
59651;DHT22;45954;49.768;8.636;2022-08-03T13:34:37;36.50;47.00
59651;DHT22;45954;49.768;8.636;2022-08-03T13:37:03;36.80;47.00
59651;DHT22;45954;49.768;8.636;2022-08-03T13:39:29;37.10;47.50
59651;DHT22;45954;49.768;8.636;2022-08-03T13:41:55;37.20;46.30
59651;DHT22;45954;49.768;8.636;2022-08-03T13:44:22;37.30;46.40
59651;DHT22;45954;49.768;8.636;2022-08-03T13:46:48;37.60;47.60
59651;DHT22;45954;49.768;8.636;2022-08-03T13:49:14;37.20;46.30
59651;DHT22;45954;49.768;8.636;2022-08-03T13:51:40;37.50;47.20
59651;DHT22;45954;49.768;8.636;2022-08-03T13:54:06;37.80;47.10
59651;DHT22;45954;49.768;8.636;2022-08-03T13:56:32;38.10;47.30
59651;DHT22;45954;49.768;8.636;2022-08-03T13:58:58;38.00;47.80
59651;DHT22;45954;49.768;8.636;2022-08-03T14:01:25;38.40;46.20
59651;DHT22;45954;49.768;8.636;2022-08-03T14:03:52;38.60;46.50
59651;DHT22;45954;49.768;8.636;2022-08-03T14:06:20;38.60;45.80
59651;DHT22;45954;49.768;8.636;2022-08-03T14:08:45;37.80;46.90
59651;DHT22;45954;49.768;8.636;2022-08-03T14:11:14;37.60;45.60
59651;DHT22;45954;49.768;8.636;2022-08-03T14:13:40;37.40;45.60
59651;DHT22;45954;49.768;8.636;2022-08-03T14:16:06;37.50;45.50
59651;DHT22;45954;49.768;8.636;2022-08-03T14:18:32;38.20;45.50
59651;DHT22;45954;49.768;8.636;2022-08-03T14:20:59;38.00;45.10
59651;DHT22;45954;49.768;8.636;2022-08-03T14:23:27;37.80;45.70
59651;DHT22;45954;49.768;8.636;2022-08-03T14:25:52;38.00;45.10
59651;DHT22;45954;49.768;8.636;2022-08-03T14:28:20;37.60;46.70
59651;DHT22;45954;49.768;8.636;2022-08-03T14:30:47;37.80;45.50
59651;DHT22;45954;49.768;8.636;2022-08-03T14:33:13;38.20;45.60
59651;DHT22;45954;49.768;8.636;2022-08-03T14:35:39;38.20;45.00
59651;DHT22;45954;49.768;8.636;2022-08-03T14:38:05;38.30;44.80
59651;DHT22;45954;49.768;8.636;2022-08-03T14:40:31;37.70;45.60
59651;DHT22;45954;49.768;8.636;2022-08-03T14:42:57;37.70;45.50
59651;DHT22;45954;49.768;8.636;2022-08-03T14:45:23;37.20;45.50
59651;DHT22;45954;49.768;8.636;2022-08-03T14:47:49;38.20;45.30
59651;DHT22;45954;49.768;8.636;2022-08-03T14:50:16;37.70;45.30
59651;DHT22;45954;49.768;8.636;2022-08-03T14:52:42;36.90;46.50
59651;DHT22;45954;49.768;8.636;2022-08-03T14:55:08;37.90;46.20
59651;DHT22;45954;49.768;8.636;2022-08-03T14:57:34;38.10;45.10
59651;DHT22;45954;49.768;8.636;2022-08-03T15:00:00;37.80;45.40
59651;DHT22;45954;49.768;8.636;2022-08-03T15:02:26;38.50;45.30
59651;DHT22;45954;49.768;8.636;2022-08-03T15:04:53;38.60;44.50
59651;DHT22;45954;49.768;8.636;2022-08-03T15:07:19;37.80;45.10
59651;DHT22;45954;49.768;8.636;2022-08-03T15:09:45;38.60;45.50
59651;DHT22;45954;49.768;8.636;2022-08-03T15:12:11;39.30;45.80
59651;DHT22;45954;49.768;8.636;2022-08-03T15:14:37;39.10;44.00
59651;DHT22;45954;49.768;8.636;2022-08-03T15:17:03;39.10;44.30
59651;DHT22;45954;49.768;8.636;2022-08-03T15:19:30;38.70;45.00
59651;DHT22;45954;49.768;8.636;2022-08-03T15:21:55;39.20;44.20
59651;DHT22;45954;49.768;8.636;2022-08-03T15:24:21;39.50;44.60
59651;DHT22;45954;49.768;8.636;2022-08-03T15:26:47;39.00;44.80
59651;DHT22;45954;49.768;8.636;2022-08-03T15:29:13;38.30;44.40
59651;DHT22;45954;49.768;8.636;2022-08-03T15:31:39;38.20;45.10
59651;DHT22;45954;49.768;8.636;2022-08-03T15:34:05;38.70;44.90
59651;DHT22;45954;49.768;8.636;2022-08-03T15:36:31;39.20;44.40
59651;DHT22;45954;49.768;8.636;2022-08-03T15:38:58;38.30;44.90
59651;DHT22;45954;49.768;8.636;2022-08-03T15:41:24;38.10;44.80
59651;DHT22;45954;49.768;8.636;2022-08-03T15:43:50;38.90;44.80
59651;DHT22;45954;49.768;8.636;2022-08-03T15:46:17;39.00;44.00
59651;DHT22;45954;49.768;8.636;2022-08-03T15:48:43;38.70;44.70
59651;DHT22;45954;49.768;8.636;2022-08-03T15:51:10;38.20;44.30
59651;DHT22;45954;49.768;8.636;2022-08-03T15:53:37;37.70;44.70
59651;DHT22;45954;49.768;8.636;2022-08-03T15:56:03;37.60;45.10
59651;DHT22;45954;49.768;8.636;2022-08-03T15:58:32;38.30;45.50
59651;DHT22;45954;49.768;8.636;2022-08-03T16:00:59;38.20;44.10
59651;DHT22;45954;49.768;8.636;2022-08-03T16:03:27;38.50;44.00
59651;DHT22;45954;49.768;8.636;2022-08-03T16:06:02;38.90;44.00
59651;DHT22;45954;49.768;8.636;2022-08-03T16:08:29;39.00;43.80
59651;DHT22;45954;49.768;8.636;2022-08-03T16:10:56;39.80;43.50
59651;DHT22;45954;49.768;8.636;2022-08-03T16:13:23;39.50;43.70
59651;DHT22;45954;49.768;8.636;2022-08-03T16:15:50;39.90;43.80
59651;DHT22;45954;49.768;8.636;2022-08-03T16:18:17;38.80;44.10
59651;DHT22;45954;49.768;8.636;2022-08-03T16:20:44;39.50;43.60
59651;DHT22;45954;49.768;8.636;2022-08-03T16:23:10;39.50;44.10
59651;DHT22;45954;49.768;8.636;2022-08-03T16:25:41;40.30;42.80
59651;DHT22;45954;49.768;8.636;2022-08-03T16:28:09;40.50;43.50
59651;DHT22;45954;49.768;8.636;2022-08-03T16:30:35;40.10;43.10